sensor_id;sensor_type;location;lat;lon;timestamp;P1;durP1;ratioP1;P2;durP2;ratioP2
72785;SDS011;60902;53.876;10.674;2023-06-14T00:00:07;5.45;;;2.10;;
72785;SDS011;60902;53.876;10.674;2023-06-14T00:00:19;4.78;;;2.00;;
72785;SDS011;60902;53.876;10.674;2023-06-14T00:00:30;4.85;;;1.90;;
72785;SDS011;60902;53.876;10.674;2023-06-14T00:00:41;5.60;;;2.00;;
72785;SDS011;60902;53.876;10.674;2023-06-14T00:00:54;5.75;;;2.13;;
72785;SDS011;60902;53.876;10.674;2023-06-14T00:01:06;6.13;;;2.10;;
72785;SDS011;60902;53.876;10.674;2023-06-14T00:01:17;6.60;;;2.35;;
72785;SDS011;60902;53.876;10.674;2023-06-14T00:01:30;6.53;;;2.17;;
72785;SDS011;60902;53.876;10.674;2023-06-14T00:01:44;5.22;;;2.00;;
72785;SDS011;60902;53.876;10.674;2023-06-14T00:01:55;5.80;;;2.10;;
72785;SDS011;60902;53.876;10.674;2023-06-14T00:02:06;5.72;;;2.20;;
72785;SDS011;60902;53.876;10.674;2023-06-14T00:02:19;6.28;;;2.20;;
72785;SDS011;60902;53.876;10.674;2023-06-14T00:02:29;6.70;;;2.10;;
72785;SDS011;60902;53.876;10.674;2023-06-14T00:02:42;6.63;;;2.00;;
72785;SDS011;60902;53.876;10.674;2023-06-14T00:02:52;6.17;;;2.10;;
72785;SDS011;60902;53.876;10.674;2023-06-14T00:03:06;6.40;;;2.30;;
72785;SDS011;60902;53.876;10.674;2023-06-14T00:03:18;6.22;;;2.33;;
72785;SDS011;60902;53.876;10.674;2023-06-14T00:03:32;6.35;;;2.42;;
72785;SDS011;60902;53.876;10.674;2023-06-14T00:03:43;5.53;;;2.10;;
72785;SDS011;60902;53.876;10.674;2023-06-14T00:03:53;5.47;;;2.00;;
72785;SDS011;60902;53.876;10.674;2023-06-14T00:04:06;5.10;;;1.88;;
72785;SDS011;60902;53.876;10.674;2023-06-14T00:04:18;4.82;;;2.03;;
72785;SDS011;60902;53.876;10.674;2023-06-14T00:04:30;4.68;;;2.03;;
72785;SDS011;60902;53.876;10.674;2023-06-14T00:04:41;4.88;;;2.03;;
72785;SDS011;60902;53.876;10.674;2023-06-14T00:04:53;4.60;;;1.95;;
72785;SDS011;60902;53.876;10.674;2023-06-14T00:05:04;5.00;;;1.90;;
72785;SDS011;60902;53.876;10.674;2023-06-14T00:05:17;5.35;;;2.20;;
72785;SDS011;60902;53.876;10.674;2023-06-14T00:05:28;5.43;;;2.10;;
72785;SDS011;60902;53.876;10.674;2023-06-14T00:05:43;5.07;;;2.08;;
72785;SDS011;60902;53.876;10.674;2023-06-14T00:05:54;5.30;;;2.08;;
72785;SDS011;60902;53.876;10.674;2023-06-14T00:06:05;6.03;;;2.15;;
72785;SDS011;60902;53.876;10.674;2023-06-14T00:06:16;6.90;;;2.55;;
72785;SDS011;60902;53.876;10.674;2023-06-14T00:06:28;6.40;;;2.60;;
72785;SDS011;60902;53.876;10.674;2023-06-14T00:06:39;5.05;;;2.25;;
72785;SDS011;60902;53.876;10.674;2023-06-14T00:06:51;5.80;;;2.15;;
72785;SDS011;60902;53.876;10.674;2023-06-14T00:07:02;5.50;;;2.10;;
72785;SDS011;60902;53.876;10.674;2023-06-14T00:07:14;5.03;;;2.08;;
72785;SDS011;60902;53.876;10.674;2023-06-14T00:07:35;4.20;;;1.98;;
72785;SDS011;60902;53.876;10.674;2023-06-14T00:07:48;5.03;;;2.00;;
72785;SDS011;60902;53.876;10.674;2023-06-14T00:07:59;5.35;;;2.08;;
72785;SDS011;60902;53.876;10.674;2023-06-14T00:08:11;5.75;;;2.08;;
72785;SDS011;60902;53.876;10.674;2023-06-14T00:08:23;5.25;;;2.00;;
72785;SDS011;60902;53.876;10.674;2023-06-14T00:08:35;6.00;;;2.10;;
72785;SDS011;60902;53.876;10.674;2023-06-14T00:08:46;7.05;;;2.50;;
72785;SDS011;60902;53.876;10.674;2023-06-14T00:08:57;7.30;;;2.55;;
72785;SDS011;60902;53.876;10.674;2023-06-14T00:09:08;6.40;;;2.50;;
72785;SDS011;60902;53.876;10.674;2023-06-14T00:09:19;6.03;;;2.20;;
72785;SDS011;60902;53.876;10.674;2023-06-14T00:09:30;6.13;;;2.20;;
72785;SDS011;60902;53.876;10.674;2023-06-14T00:09:41;6.03;;;2.08;;
72785;SDS011;60902;53.876;10.674;2023-06-14T00:09:53;6.13;;;1.90;;
72785;SDS011;60902;53.876;10.674;2023-06-14T00:10:04;5.40;;;1.90;;
72785;SDS011;60902;53.876;10.674;2023-06-14T00:10:17;4.63;;;1.92;;
72785;SDS011;60902;53.876;10.674;2023-06-14T00:10:29;4.28;;;1.88;;
72785;SDS011;60902;53.876;10.674;2023-06-14T00:10:41;4.53;;;1.92;;
72785;SDS011;60902;53.876;10.674;2023-06-14T00:10:52;5.13;;;1.93;;
72785;SDS011;60902;53.876;10.674;2023-06-14T00:11:03;5.10;;;2.00;;
72785;SDS011;60902;53.876;10.674;2023-06-14T00:11:14;4.88;;;2.00;;
72785;SDS011;60902;53.876;10.674;2023-06-14T00:11:25;4.72;;;1.90;;
72785;SDS011;60902;53.876;10.674;2023-06-14T00:11:36;4.72;;;1.80;;
72785;SDS011;60902;53.876;10.674;2023-06-14T00:11:47;4.40;;;1.70;;
72785;SDS011;60902;53.876;10.674;2023-06-14T00:11:59;5.00;;;1.90;;
72785;SDS011;60902;53.876;10.674;2023-06-14T00:12:11;5.30;;;2.00;;
72785;SDS011;60902;53.876;10.674;2023-06-14T00:12:22;5.30;;;2.03;;
72785;SDS011;60902;53.876;10.674;2023-06-14T00:12:34;5.88;;;1.95;;
72785;SDS011;60902;53.876;10.674;2023-06-14T00:12:45;6.03;;;2.03;;
72785;SDS011;60902;53.876;10.674;2023-06-14T00:12:56;6.13;;;2.10;;
72785;SDS011;60902;53.876;10.674;2023-06-14T00:13:07;7.10;;;2.30;;
72785;SDS011;60902;53.876;10.674;2023-06-14T00:13:18;7.72;;;2.42;;
72785;SDS011;60902;53.876;10.674;2023-06-14T00:13:30;8.93;;;2.67;;
72785;SDS011;60902;53.876;10.674;2023-06-14T00:13:41;8.30;;;2.50;;
72785;SDS011;60902;53.876;10.674;2023-06-14T00:13:53;8.15;;;2.30;;
72785;SDS011;60902;53.876;10.674;2023-06-14T00:14:04;7.80;;;2.40;;
72785;SDS011;60902;53.876;10.674;2023-06-14T00:14:15;6.07;;;2.20;;
72785;SDS011;60902;53.876;10.674;2023-06-14T00:14:27;5.78;;;2.20;;
72785;SDS011;60902;53.876;10.674;2023-06-14T00:14:38;5.57;;;2.13;;
72785;SDS011;60902;53.876;10.674;2023-06-14T00:14:50;5.50;;;1.90;;
72785;SDS011;60902;53.876;10.674;2023-06-14T00:15:01;5.53;;;1.77;;
72785;SDS011;60902;53.876;10.674;2023-06-14T00:15:13;4.85;;;1.67;;
72785;SDS011;60902;53.876;10.674;2023-06-14T00:15:24;5.50;;;1.90;;
72785;SDS011;60902;53.876;10.674;2023-06-14T00:15:35;5.50;;;2.13;;
72785;SDS011;60902;53.876;10.674;2023-06-14T00:15:46;5.93;;;2.30;;
72785;SDS011;60902;53.876;10.674;2023-06-14T00:15:57;5.07;;;2.13;;
72785;SDS011;60902;53.876;10.674;2023-06-14T00:16:09;4.57;;;1.92;;
72785;SDS011;60902;53.876;10.674;2023-06-14T00:16:19;4.53;;;1.80;;
72785;SDS011;60902;53.876;10.674;2023-06-14T00:16:31;5.68;;;1.98;;
72785;SDS011;60902;53.876;10.674;2023-06-14T00:16:43;5.90;;;2.08;;
72785;SDS011;60902;53.876;10.674;2023-06-14T00:16:54;6.22;;;2.10;;
72785;SDS011;60902;53.876;10.674;2023-06-14T00:17:08;5.53;;;2.00;;
72785;SDS011;60902;53.876;10.674;2023-06-14T00:17:19;5.22;;;1.92;;
72785;SDS011;60902;53.876;10.674;2023-06-14T00:17:30;5.22;;;1.90;;
72785;SDS011;60902;53.876;10.674;2023-06-14T00:17:42;5.57;;;1.90;;
72785;SDS011;60902;53.876;10.674;2023-06-14T00:17:55;5.30;;;1.88;;
72785;SDS011;60902;53.876;10.674;2023-06-14T00:18:06;5.00;;;1.80;;
72785;SDS011;60902;53.876;10.674;2023-06-14T00:18:17;4.80;;;1.80;;
72785;SDS011;60902;53.876;10.674;2023-06-14T00:18:30;5.05;;;1.75;;
72785;SDS011;60902;53.876;10.674;2023-06-14T00:18:40;5.15;;;1.88;;
72785;SDS011;60902;53.876;10.674;2023-06-14T00:18:52;5.32;;;1.92;;
72785;SDS011;60902;53.876;10.674;2023-06-14T00:19:03;5.43;;;2.00;;
72785;SDS011;60902;53.876;10.674;2023-06-14T00:19:14;5.47;;;1.90;;
72785;SDS011;60902;53.876;10.674;2023-06-14T00:19:25;5.75;;;2.20;;
72785;SDS011;60902;53.876;10.674;2023-06-14T00:19:36;6.32;;;2.20;;
72785;SDS011;60902;53.876;10.674;2023-06-14T00:19:48;6.63;;;2.00;;
72785;SDS011;60902;53.876;10.674;2023-06-14T00:20:01;6.00;;;1.75;;
72785;SDS011;60902;53.876;10.674;2023-06-14T00:20:14;5.00;;;1.70;;
72785;SDS011;60902;53.876;10.674;2023-06-14T00:20:27;4.82;;;1.92;;
72785;SDS011;60902;53.876;10.674;2023-06-14T00:20:38;4.95;;;2.10;;
72785;SDS011;60902;53.876;10.674;2023-06-14T00:20:49;4.85;;;2.00;;
72785;SDS011;60902;53.876;10.674;2023-06-14T00:21:01;4.55;;;1.70;;
72785;SDS011;60902;53.876;10.674;2023-06-14T00:21:14;4.63;;;1.70;;
72785;SDS011;60902;53.876;10.674;2023-06-14T00:21:25;5.47;;;1.85;;
72785;SDS011;60902;53.876;10.674;2023-06-14T00:21:38;5.80;;;2.00;;
72785;SDS011;60902;53.876;10.674;2023-06-14T00:21:49;5.55;;;1.98;;
72785;SDS011;60902;53.876;10.674;2023-06-14T00:22:02;4.40;;;1.90;;
72785;SDS011;60902;53.876;10.674;2023-06-14T00:22:13;4.35;;;2.00;;
72785;SDS011;60902;53.876;10.674;2023-06-14T00:22:24;4.45;;;2.13;;
72785;SDS011;60902;53.876;10.674;2023-06-14T00:22:35;4.82;;;2.17;;
72785;SDS011;60902;53.876;10.674;2023-06-14T00:22:48;4.80;;;2.10;;
72785;SDS011;60902;53.876;10.674;2023-06-14T00:23:00;4.65;;;2.10;;
72785;SDS011;60902;53.876;10.674;2023-06-14T00:23:11;4.37;;;1.90;;
72785;SDS011;60902;53.876;10.674;2023-06-14T00:23:22;4.60;;;1.90;;
72785;SDS011;60902;53.876;10.674;2023-06-14T00:23:33;5.50;;;2.00;;
72785;SDS011;60902;53.876;10.674;2023-06-14T00:23:44;5.70;;;2.22;;
72785;SDS011;60902;53.876;10.674;2023-06-14T00:23:57;6.03;;;2.40;;
72785;SDS011;60902;53.876;10.674;2023-06-14T00:24:10;5.32;;;2.20;;
72785;SDS011;60902;53.876;10.674;2023-06-14T00:24:21;5.30;;;2.03;;
72785;SDS011;60902;53.876;10.674;2023-06-14T00:24:32;4.93;;;2.00;;
72785;SDS011;60902;53.876;10.674;2023-06-14T00:24:43;5.45;;;2.15;;
72785;SDS011;60902;53.876;10.674;2023-06-14T00:24:54;5.68;;;2.20;;
72785;SDS011;60902;53.876;10.674;2023-06-14T00:25:05;5.85;;;2.30;;
72785;SDS011;60902;53.876;10.674;2023-06-14T00:25:16;5.35;;;2.15;;
72785;SDS011;60902;53.876;10.674;2023-06-14T00:25:28;5.60;;;2.17;;
72785;SDS011;60902;53.876;10.674;2023-06-14T00:25:39;5.25;;;1.95;;
72785;SDS011;60902;53.876;10.674;2023-06-14T00:25:50;5.30;;;1.90;;
72785;SDS011;60902;53.876;10.674;2023-06-14T00:26:01;4.97;;;1.98;;
72785;SDS011;60902;53.876;10.674;2023-06-14T00:26:12;4.78;;;1.80;;
72785;SDS011;60902;53.876;10.674;2023-06-14T00:26:23;4.88;;;1.75;;
72785;SDS011;60902;53.876;10.674;2023-06-14T00:26:36;5.18;;;1.70;;
72785;SDS011;60902;53.876;10.674;2023-06-14T00:26:48;4.90;;;1.80;;
72785;SDS011;60902;53.876;10.674;2023-06-14T00:26:59;4.70;;;1.87;;
72785;SDS011;60902;53.876;10.674;2023-06-14T00:27:10;4.65;;;2.00;;
72785;SDS011;60902;53.876;10.674;2023-06-14T00:27:21;4.80;;;2.03;;
72785;SDS011;60902;53.876;10.674;2023-06-14T00:27:32;4.78;;;1.85;;
72785;SDS011;60902;53.876;10.674;2023-06-14T00:27:43;4.97;;;1.85;;
72785;SDS011;60902;53.876;10.674;2023-06-14T00:27:54;5.13;;;1.87;;
72785;SDS011;60902;53.876;10.674;2023-06-14T00:28:06;5.75;;;2.05;;
72785;SDS011;60902;53.876;10.674;2023-06-14T00:28:17;5.63;;;2.10;;
72785;SDS011;60902;53.876;10.674;2023-06-14T00:28:28;5.25;;;2.10;;
72785;SDS011;60902;53.876;10.674;2023-06-14T00:28:40;4.47;;;2.08;;
72785;SDS011;60902;53.876;10.674;2023-06-14T00:28:51;4.88;;;2.13;;
72785;SDS011;60902;53.876;10.674;2023-06-14T00:29:02;5.20;;;2.08;;
72785;SDS011;60902;53.876;10.674;2023-06-14T00:29:13;5.60;;;2.20;;
72785;SDS011;60902;53.876;10.674;2023-06-14T00:29:24;4.93;;;2.00;;
72785;SDS011;60902;53.876;10.674;2023-06-14T00:29:35;5.07;;;2.00;;
72785;SDS011;60902;53.876;10.674;2023-06-14T00:29:46;6.18;;;2.22;;
72785;SDS011;60902;53.876;10.674;2023-06-14T00:29:57;7.15;;;2.42;;
72785;SDS011;60902;53.876;10.674;2023-06-14T00:30:11;7.05;;;2.58;;
72785;SDS011;60902;53.876;10.674;2023-06-14T00:30:23;6.38;;;2.35;;
72785;SDS011;60902;53.876;10.674;2023-06-14T00:30:35;6.05;;;2.25;;
72785;SDS011;60902;53.876;10.674;2023-06-14T00:30:46;5.60;;;2.35;;
72785;SDS011;60902;53.876;10.674;2023-06-14T00:30:57;5.32;;;2.28;;
72785;SDS011;60902;53.876;10.674;2023-06-14T00:31:08;5.32;;;2.20;;
72785;SDS011;60902;53.876;10.674;2023-06-14T00:31:19;5.20;;;2.20;;
72785;SDS011;60902;53.876;10.674;2023-06-14T00:31:30;6.22;;;2.20;;
72785;SDS011;60902;53.876;10.674;2023-06-14T00:31:42;6.07;;;2.20;;
72785;SDS011;60902;53.876;10.674;2023-06-14T00:31:53;5.97;;;2.10;;
72785;SDS011;60902;53.876;10.674;2023-06-14T00:32:04;5.18;;;2.00;;
72785;SDS011;60902;53.876;10.674;2023-06-14T00:32:17;5.07;;;1.92;;
72785;SDS011;60902;53.876;10.674;2023-06-14T00:32:29;4.75;;;1.90;;
72785;SDS011;60902;53.876;10.674;2023-06-14T00:32:40;4.10;;;1.85;;
72785;SDS011;60902;53.876;10.674;2023-06-14T00:32:52;4.75;;;2.20;;
72785;SDS011;60902;53.876;10.674;2023-06-14T00:33:03;5.53;;;2.35;;
72785;SDS011;60902;53.876;10.674;2023-06-14T00:33:15;6.50;;;2.45;;
72785;SDS011;60902;53.876;10.674;2023-06-14T00:33:26;6.28;;;2.50;;
72785;SDS011;60902;53.876;10.674;2023-06-14T00:33:37;5.90;;;2.40;;
72785;SDS011;60902;53.876;10.674;2023-06-14T00:33:51;4.95;;;2.15;;
72785;SDS011;60902;53.876;10.674;2023-06-14T00:34:02;4.38;;;1.80;;
72785;SDS011;60902;53.876;10.674;2023-06-14T00:34:13;4.43;;;1.80;;
72785;SDS011;60902;53.876;10.674;2023-06-14T00:34:24;4.32;;;1.60;;
72785;SDS011;60902;53.876;10.674;2023-06-14T00:34:36;4.57;;;1.60;;
72785;SDS011;60902;53.876;10.674;2023-06-14T00:34:47;4.93;;;1.73;;
72785;SDS011;60902;53.876;10.674;2023-06-14T00:34:58;6.23;;;2.10;;
72785;SDS011;60902;53.876;10.674;2023-06-14T00:35:09;6.93;;;2.40;;
72785;SDS011;60902;53.876;10.674;2023-06-14T00:35:21;6.90;;;2.33;;
72785;SDS011;60902;53.876;10.674;2023-06-14T00:35:32;5.63;;;2.17;;
72785;SDS011;60902;53.876;10.674;2023-06-14T00:35:44;4.57;;;2.00;;
72785;SDS011;60902;53.876;10.674;2023-06-14T00:35:55;4.38;;;2.03;;
72785;SDS011;60902;53.876;10.674;2023-06-14T00:36:06;4.90;;;2.20;;
72785;SDS011;60902;53.876;10.674;2023-06-14T00:36:17;5.13;;;2.22;;
72785;SDS011;60902;53.876;10.674;2023-06-14T00:36:28;4.82;;;1.85;;
72785;SDS011;60902;53.876;10.674;2023-06-14T00:36:40;4.53;;;1.60;;
72785;SDS011;60902;53.876;10.674;2023-06-14T00:36:51;4.70;;;1.70;;
72785;SDS011;60902;53.876;10.674;2023-06-14T00:37:02;5.07;;;2.00;;
72785;SDS011;60902;53.876;10.674;2023-06-14T00:37:14;4.90;;;1.90;;
72785;SDS011;60902;53.876;10.674;2023-06-14T00:37:25;5.10;;;1.63;;
72785;SDS011;60902;53.876;10.674;2023-06-14T00:37:36;5.32;;;1.70;;
72785;SDS011;60902;53.876;10.674;2023-06-14T00:37:47;5.25;;;1.77;;
72785;SDS011;60902;53.876;10.674;2023-06-14T00:37:58;5.32;;;1.90;;
72785;SDS011;60902;53.876;10.674;2023-06-14T00:38:09;5.90;;;2.17;;
72785;SDS011;60902;53.876;10.674;2023-06-14T00:38:20;5.72;;;2.28;;
72785;SDS011;60902;53.876;10.674;2023-06-14T00:38:31;6.28;;;2.45;;
72785;SDS011;60902;53.876;10.674;2023-06-14T00:38:44;5.93;;;2.20;;
72785;SDS011;60902;53.876;10.674;2023-06-14T00:38:55;5.50;;;2.03;;
72785;SDS011;60902;53.876;10.674;2023-06-14T00:39:06;5.17;;;1.90;;
72785;SDS011;60902;53.876;10.674;2023-06-14T00:39:16;5.50;;;2.00;;
72785;SDS011;60902;53.876;10.674;2023-06-14T00:39:27;5.20;;;1.98;;
72785;SDS011;60902;53.876;10.674;2023-06-14T00:39:38;4.20;;;1.80;;
72785;SDS011;60902;53.876;10.674;2023-06-14T00:39:50;4.43;;;1.77;;
72785;SDS011;60902;53.876;10.674;2023-06-14T00:40:00;4.70;;;1.80;;
72785;SDS011;60902;53.876;10.674;2023-06-14T00:40:14;4.90;;;1.90;;
72785;SDS011;60902;53.876;10.674;2023-06-14T00:40:25;4.80;;;1.83;;
72785;SDS011;60902;53.876;10.674;2023-06-14T00:40:36;5.07;;;1.90;;
72785;SDS011;60902;53.876;10.674;2023-06-14T00:40:47;4.88;;;1.90;;
72785;SDS011;60902;53.876;10.674;2023-06-14T00:40:57;4.65;;;1.98;;
72785;SDS011;60902;53.876;10.674;2023-06-14T00:41:08;4.70;;;2.00;;
72785;SDS011;60902;53.876;10.674;2023-06-14T00:41:19;4.90;;;1.83;;
72785;SDS011;60902;53.876;10.674;2023-06-14T00:41:30;5.65;;;1.90;;
72785;SDS011;60902;53.876;10.674;2023-06-14T00:41:43;5.80;;;1.98;;
72785;SDS011;60902;53.876;10.674;2023-06-14T00:41:54;5.10;;;2.10;;
72785;SDS011;60902;53.876;10.674;2023-06-14T00:42:05;4.80;;;2.00;;
72785;SDS011;60902;53.876;10.674;2023-06-14T00:42:23;5.68;;;2.20;;
72785;SDS011;60902;53.876;10.674;2023-06-14T00:42:35;6.43;;;2.30;;
72785;SDS011;60902;53.876;10.674;2023-06-14T00:42:46;6.20;;;2.20;;
72785;SDS011;60902;53.876;10.674;2023-06-14T00:42:57;5.22;;;2.08;;
72785;SDS011;60902;53.876;10.674;2023-06-14T00:43:09;4.72;;;1.95;;
72785;SDS011;60902;53.876;10.674;2023-06-14T00:43:20;5.10;;;1.90;;
72785;SDS011;60902;53.876;10.674;2023-06-14T00:43:31;5.18;;;1.88;;
72785;SDS011;60902;53.876;10.674;2023-06-14T00:43:42;5.22;;;1.85;;
72785;SDS011;60902;53.876;10.674;2023-06-14T00:43:53;5.20;;;1.88;;
72785;SDS011;60902;53.876;10.674;2023-06-14T00:44:06;5.65;;;2.10;;
72785;SDS011;60902;53.876;10.674;2023-06-14T00:44:17;5.72;;;2.20;;
72785;SDS011;60902;53.876;10.674;2023-06-14T00:44:28;5.35;;;2.15;;
72785;SDS011;60902;53.876;10.674;2023-06-14T00:44:40;5.28;;;2.03;;
72785;SDS011;60902;53.876;10.674;2023-06-14T00:44:51;4.95;;;1.90;;
72785;SDS011;60902;53.876;10.674;2023-06-14T00:45:04;5.15;;;1.90;;
72785;SDS011;60902;53.876;10.674;2023-06-14T00:45:15;4.68;;;1.98;;
72785;SDS011;60902;53.876;10.674;2023-06-14T00:45:26;4.75;;;2.00;;
72785;SDS011;60902;53.876;10.674;2023-06-14T00:45:38;4.60;;;1.92;;
72785;SDS011;60902;53.876;10.674;2023-06-14T00:45:49;4.47;;;1.83;;
72785;SDS011;60902;53.876;10.674;2023-06-14T00:46:01;4.47;;;1.70;;
72785;SDS011;60902;53.876;10.674;2023-06-14T00:46:13;4.80;;;1.80;;
72785;SDS011;60902;53.876;10.674;2023-06-14T00:46:24;4.72;;;1.90;;
72785;SDS011;60902;53.876;10.674;2023-06-14T00:46:35;4.32;;;1.92;;
72785;SDS011;60902;53.876;10.674;2023-06-14T00:46:46;4.10;;;1.88;;
72785;SDS011;60902;53.876;10.674;2023-06-14T00:46:57;4.38;;;1.77;;
72785;SDS011;60902;53.876;10.674;2023-06-14T00:47:08;4.35;;;1.63;;
72785;SDS011;60902;53.876;10.674;2023-06-14T00:47:19;5.07;;;1.88;;
72785;SDS011;60902;53.876;10.674;2023-06-14T00:47:31;5.40;;;2.00;;
72785;SDS011;60902;53.876;10.674;2023-06-14T00:47:42;6.17;;;2.20;;
72785;SDS011;60902;53.876;10.674;2023-06-14T00:47:54;5.95;;;2.35;;
72785;SDS011;60902;53.876;10.674;2023-06-14T00:48:06;5.97;;;2.58;;
72785;SDS011;60902;53.876;10.674;2023-06-14T00:48:19;4.82;;;2.20;;
72785;SDS011;60902;53.876;10.674;2023-06-14T00:48:30;5.15;;;1.95;;
72785;SDS011;60902;53.876;10.674;2023-06-14T00:48:43;6.90;;;1.95;;
72785;SDS011;60902;53.876;10.674;2023-06-14T00:48:55;7.10;;;2.08;;
72785;SDS011;60902;53.876;10.674;2023-06-14T00:49:07;5.63;;;1.95;;
72785;SDS011;60902;53.876;10.674;2023-06-14T00:49:18;4.60;;;1.80;;
72785;SDS011;60902;53.876;10.674;2023-06-14T00:49:30;4.32;;;1.70;;
72785;SDS011;60902;53.876;10.674;2023-06-14T00:49:41;4.10;;;1.60;;
72785;SDS011;60902;53.876;10.674;2023-06-14T00:49:53;4.30;;;1.73;;
72785;SDS011;60902;53.876;10.674;2023-06-14T00:50:06;5.82;;;2.08;;
72785;SDS011;60902;53.876;10.674;2023-06-14T00:50:19;5.97;;;2.00;;
72785;SDS011;60902;53.876;10.674;2023-06-14T00:50:33;5.30;;;1.88;;
72785;SDS011;60902;53.876;10.674;2023-06-14T00:50:44;4.35;;;1.90;;
72785;SDS011;60902;53.876;10.674;2023-06-14T00:50:56;4.45;;;2.00;;
72785;SDS011;60902;53.876;10.674;2023-06-14T00:51:10;4.95;;;2.10;;
72785;SDS011;60902;53.876;10.674;2023-06-14T00:51:21;4.90;;;2.10;;
72785;SDS011;60902;53.876;10.674;2023-06-14T00:51:32;5.00;;;2.05;;
72785;SDS011;60902;53.876;10.674;2023-06-14T00:51:44;5.53;;;2.33;;
72785;SDS011;60902;53.876;10.674;2023-06-14T00:51:55;5.57;;;2.20;;
72785;SDS011;60902;53.876;10.674;2023-06-14T00:52:07;5.10;;;2.13;;
72785;SDS011;60902;53.876;10.674;2023-06-14T00:52:22;5.07;;;1.92;;
72785;SDS011;60902;53.876;10.674;2023-06-14T00:52:34;5.05;;;2.10;;
72785;SDS011;60902;53.876;10.674;2023-06-14T00:52:45;4.93;;;2.03;;
72785;SDS011;60902;53.876;10.674;2023-06-14T00:52:56;5.07;;;2.00;;
72785;SDS011;60902;53.876;10.674;2023-06-14T00:53:08;6.47;;;2.25;;
72785;SDS011;60902;53.876;10.674;2023-06-14T00:53:22;6.70;;;2.40;;
72785;SDS011;60902;53.876;10.674;2023-06-14T00:53:35;6.00;;;2.30;;
72785;SDS011;60902;53.876;10.674;2023-06-14T00:53:46;6.03;;;2.20;;
72785;SDS011;60902;53.876;10.674;2023-06-14T00:53:57;5.97;;;2.15;;
72785;SDS011;60902;53.876;10.674;2023-06-14T00:54:08;4.65;;;1.92;;
72785;SDS011;60902;53.876;10.674;2023-06-14T00:54:19;4.70;;;2.03;;
72785;SDS011;60902;53.876;10.674;2023-06-14T00:54:32;4.47;;;2.03;;
72785;SDS011;60902;53.876;10.674;2023-06-14T00:54:43;5.30;;;2.35;;
72785;SDS011;60902;53.876;10.674;2023-06-14T00:54:54;6.60;;;2.42;;
72785;SDS011;60902;53.876;10.674;2023-06-14T00:55:06;6.78;;;2.50;;
72785;SDS011;60902;53.876;10.674;2023-06-14T00:55:17;6.40;;;2.47;;
72785;SDS011;60902;53.876;10.674;2023-06-14T00:55:28;6.20;;;2.40;;
72785;SDS011;60902;53.876;10.674;2023-06-14T00:55:40;6.30;;;2.33;;
72785;SDS011;60902;53.876;10.674;2023-06-14T00:55:52;6.13;;;2.13;;
72785;SDS011;60902;53.876;10.674;2023-06-14T00:56:03;5.28;;;2.03;;
72785;SDS011;60902;53.876;10.674;2023-06-14T00:56:14;5.25;;;2.20;;
72785;SDS011;60902;53.876;10.674;2023-06-14T00:56:26;5.38;;;2.50;;
72785;SDS011;60902;53.876;10.674;2023-06-14T00:56:37;5.82;;;2.63;;
72785;SDS011;60902;53.876;10.674;2023-06-14T00:56:49;5.97;;;2.50;;
72785;SDS011;60902;53.876;10.674;2023-06-14T00:57:00;6.05;;;2.25;;
72785;SDS011;60902;53.876;10.674;2023-06-14T00:57:11;6.13;;;2.30;;
72785;SDS011;60902;53.876;10.674;2023-06-14T00:57:22;5.93;;;2.30;;
72785;SDS011;60902;53.876;10.674;2023-06-14T00:57:37;5.43;;;2.28;;
72785;SDS011;60902;53.876;10.674;2023-06-14T00:57:48;5.68;;;2.42;;
72785;SDS011;60902;53.876;10.674;2023-06-14T00:57:59;6.28;;;2.60;;
72785;SDS011;60902;53.876;10.674;2023-06-14T00:58:10;6.18;;;2.50;;
72785;SDS011;60902;53.876;10.674;2023-06-14T00:58:21;6.43;;;2.47;;
72785;SDS011;60902;53.876;10.674;2023-06-14T00:58:33;5.80;;;2.35;;
72785;SDS011;60902;53.876;10.674;2023-06-14T00:58:44;6.50;;;2.30;;
72785;SDS011;60902;53.876;10.674;2023-06-14T00:58:55;5.55;;;2.05;;
72785;SDS011;60902;53.876;10.674;2023-06-14T00:59:07;6.35;;;2.28;;
72785;SDS011;60902;53.876;10.674;2023-06-14T00:59:21;6.60;;;2.60;;
72785;SDS011;60902;53.876;10.674;2023-06-14T00:59:32;6.20;;;2.58;;
72785;SDS011;60902;53.876;10.674;2023-06-14T00:59:44;5.55;;;2.20;;
72785;SDS011;60902;53.876;10.674;2023-06-14T00:59:56;5.15;;;2.10;;
72785;SDS011;60902;53.876;10.674;2023-06-14T01:00:07;5.13;;;1.92;;
72785;SDS011;60902;53.876;10.674;2023-06-14T01:00:19;5.32;;;2.50;;
72785;SDS011;60902;53.876;10.674;2023-06-14T01:00:30;5.63;;;2.80;;
72785;SDS011;60902;53.876;10.674;2023-06-14T01:00:41;5.68;;;2.80;;
72785;SDS011;60902;53.876;10.674;2023-06-14T01:00:54;5.55;;;2.20;;
72785;SDS011;60902;53.876;10.674;2023-06-14T01:01:06;5.90;;;2.25;;
72785;SDS011;60902;53.876;10.674;2023-06-14T01:01:17;5.93;;;2.38;;
72785;SDS011;60902;53.876;10.674;2023-06-14T01:01:28;5.33;;;2.30;;
72785;SDS011;60902;53.876;10.674;2023-06-14T01:01:42;4.60;;;2.10;;
72785;SDS011;60902;53.876;10.674;2023-06-14T01:01:54;4.30;;;2.08;;
72785;SDS011;60902;53.876;10.674;2023-06-14T01:02:05;4.68;;;2.00;;
72785;SDS011;60902;53.876;10.674;2023-06-14T01:02:17;5.65;;;2.03;;
72785;SDS011;60902;53.876;10.674;2023-06-14T01:02:30;7.22;;;2.20;;
72785;SDS011;60902;53.876;10.674;2023-06-14T01:02:41;7.50;;;2.50;;
72785;SDS011;60902;53.876;10.674;2023-06-14T01:02:52;6.22;;;2.53;;
72785;SDS011;60902;53.876;10.674;2023-06-14T01:03:03;5.30;;;2.50;;
72785;SDS011;60902;53.876;10.674;2023-06-14T01:03:14;5.40;;;2.50;;
72785;SDS011;60902;53.876;10.674;2023-06-14T01:03:29;5.22;;;2.30;;
72785;SDS011;60902;53.876;10.674;2023-06-14T01:03:40;5.40;;;2.10;;
72785;SDS011;60902;53.876;10.674;2023-06-14T01:03:52;5.43;;;1.98;;
72785;SDS011;60902;53.876;10.674;2023-06-14T01:04:03;4.70;;;1.77;;
72785;SDS011;60902;53.876;10.674;2023-06-14T01:04:15;4.50;;;1.70;;
72785;SDS011;60902;53.876;10.674;2023-06-14T01:04:27;5.25;;;1.90;;
72785;SDS011;60902;53.876;10.674;2023-06-14T01:04:38;5.40;;;2.20;;
72785;SDS011;60902;53.876;10.674;2023-06-14T01:04:51;5.60;;;2.38;;
72785;SDS011;60902;53.876;10.674;2023-06-14T01:05:04;6.10;;;2.40;;
72785;SDS011;60902;53.876;10.674;2023-06-14T01:05:17;5.60;;;2.25;;
72785;SDS011;60902;53.876;10.674;2023-06-14T01:05:29;5.78;;;2.10;;
72785;SDS011;60902;53.876;10.674;2023-06-14T01:05:42;5.55;;;2.20;;
72785;SDS011;60902;53.876;10.674;2023-06-14T01:05:56;6.07;;;2.38;;
72785;SDS011;60902;53.876;10.674;2023-06-14T01:06:18;6.43;;;2.30;;
72785;SDS011;60902;53.876;10.674;2023-06-14T01:06:39;5.00;;;2.17;;
72785;SDS011;60902;53.876;10.674;2023-06-14T01:06:59;6.13;;;2.40;;
72785;SDS011;60902;53.876;10.674;2023-06-14T01:07:29;6.15;;;2.47;;
72785;SDS011;60902;53.876;10.674;2023-06-14T01:07:52;5.03;;;2.00;;
72785;SDS011;60902;53.876;10.674;2023-06-14T01:08:14;6.60;;;2.20;;
72785;SDS011;60902;53.876;10.674;2023-06-14T01:08:37;5.25;;;2.13;;
72785;SDS011;60902;53.876;10.674;2023-06-14T01:08:59;4.90;;;1.98;;
72785;SDS011;60902;53.876;10.674;2023-06-14T01:09:18;4.70;;;1.92;;
72785;SDS011;60902;53.876;10.674;2023-06-14T01:09:41;4.78;;;1.80;;
72785;SDS011;60902;53.876;10.674;2023-06-14T01:10:06;4.75;;;1.73;;
72785;SDS011;60902;53.876;10.674;2023-06-14T01:10:29;5.28;;;2.13;;
72785;SDS011;60902;53.876;10.674;2023-06-14T01:10:50;6.82;;;2.30;;
72785;SDS011;60902;53.876;10.674;2023-06-14T01:11:07;6.57;;;2.30;;
72785;SDS011;60902;53.876;10.674;2023-06-14T01:11:24;4.72;;;1.98;;
72785;SDS011;60902;53.876;10.674;2023-06-14T01:11:41;5.38;;;2.08;;